Terminal Aerodrome Forecast
Issued by NWS

Home | Current Version | Previous Version | Text Only | Print | Product List | Glossary On
Versions: 1 2 3 4 5 6 7 8 9 10 11 12 13 14 15
292
FTUS46 KLOX 220542
TAFWJF
TAF
KWJF 220542Z 2206/2306 24012KT P6SM SKC
     FM221900 23012G18KT P6SM SKC
     FM222200 23020G30KT P6SM SKC
     FM230400 24018KT P6SM SKC=

USA.gov is the U.S. government's official web portal to all federal, state and local government web resources and services.